sensor_id;sensor_type;location;lat;lon;timestamp;pressure;altitude;pressure_sealevel;temperature;humidity
57990;BME280;58373;51.824;5.564;2023-03-15T00:00:45;101067.81;;;1.77;89.95
57990;BME280;58373;51.824;5.564;2023-03-15T00:03:11;101064.44;;;1.77;89.84
57990;BME280;58373;51.824;5.564;2023-03-15T00:05:36;101077.34;;;1.74;90.27
57990;BME280;58373;51.824;5.564;2023-03-15T00:08:01;101076.44;;;1.75;90.47
57990;BME280;58373;51.824;5.564;2023-03-15T00:10:27;101070.59;;;1.73;90.72
57990;BME280;58373;51.824;5.564;2023-03-15T00:12:53;101082.47;;;1.74;90.61
57990;BME280;58373;51.824;5.564;2023-03-15T00:15:19;101085.66;;;1.79;91.12
57990;BME280;58373;51.824;5.564;2023-03-15T00:17:45;101086.84;;;1.70;91.28
57990;BME280;58373;51.824;5.564;2023-03-15T00:20:11;101079.25;;;1.69;90.80
57990;BME280;58373;51.824;5.564;2023-03-15T00:22:37;101081.81;;;1.69;91.17
57990;BME280;58373;51.824;5.564;2023-03-15T00:25:02;101087.81;;;1.68;91.46
57990;BME280;58373;51.824;5.564;2023-03-15T00:27:28;101098.06;;;1.68;91.30
57990;BME280;58373;51.824;5.564;2023-03-15T00:29:53;101075.09;;;1.66;91.25
57990;BME280;58373;51.824;5.564;2023-03-15T00:32:18;101074.41;;;1.63;91.12
57990;BME280;58373;51.824;5.564;2023-03-15T00:34:43;101078.63;;;1.64;91.52
57990;BME280;58373;51.824;5.564;2023-03-15T00:37:13;101070.13;;;1.63;91.26
57990;BME280;58373;51.824;5.564;2023-03-15T00:39:38;101083.63;;;1.67;91.64
57990;BME280;58373;51.824;5.564;2023-03-15T00:42:04;101082.81;;;1.65;91.70
57990;BME280;58373;51.824;5.564;2023-03-15T00:44:30;101081.88;;;1.67;91.70
57990;BME280;58373;51.824;5.564;2023-03-15T00:46:55;101081.06;;;1.67;91.93
57990;BME280;58373;51.824;5.564;2023-03-15T00:49:20;101086.16;;;1.67;91.89
57990;BME280;58373;51.824;5.564;2023-03-15T00:51:45;101090.44;;;1.66;91.38
57990;BME280;58373;51.824;5.564;2023-03-15T00:54:11;101092.94;;;1.68;91.73
57990;BME280;58373;51.824;5.564;2023-03-15T00:56:38;101105.53;;;1.72;92.12
57990;BME280;58373;51.824;5.564;2023-03-15T00:59:03;101099.72;;;1.69;91.82
57990;BME280;58373;51.824;5.564;2023-03-15T01:01:28;101099.56;;;1.72;92.50
57990;BME280;58373;51.824;5.564;2023-03-15T01:03:54;101104.94;;;1.66;92.37
57990;BME280;58373;51.824;5.564;2023-03-15T01:06:20;101110.19;;;1.63;92.18
57990;BME280;58373;51.824;5.564;2023-03-15T01:08:46;101108.38;;;1.65;92.51
57990;BME280;58373;51.824;5.564;2023-03-15T01:11:13;101118.63;;;1.65;93.12
57990;BME280;58373;51.824;5.564;2023-03-15T01:13:38;101130.41;;;1.69;93.06
57990;BME280;58373;51.824;5.564;2023-03-15T01:16:04;101120.28;;;1.66;93.29
57990;BME280;58373;51.824;5.564;2023-03-15T01:18:30;101120.41;;;1.63;92.97
57990;BME280;58373;51.824;5.564;2023-03-15T01:20:55;101131.53;;;1.62;92.83
57990;BME280;58373;51.824;5.564;2023-03-15T01:23:20;101126.47;;;1.60;92.75
57990;BME280;58373;51.824;5.564;2023-03-15T01:25:46;101134.03;;;1.63;93.65
57990;BME280;58373;51.824;5.564;2023-03-15T01:28:11;101131.56;;;1.60;93.99
57990;BME280;58373;51.824;5.564;2023-03-15T01:30:36;101127.53;;;1.54;93.64
57990;BME280;58373;51.824;5.564;2023-03-15T01:33:02;101141.47;;;1.47;93.15
57990;BME280;58373;51.824;5.564;2023-03-15T01:35:27;101146.69;;;1.44;93.51
57990;BME280;58373;51.824;5.564;2023-03-15T01:37:52;101139.22;;;1.40;93.72
57990;BME280;58373;51.824;5.564;2023-03-15T01:40:17;101138.47;;;1.36;93.48
57990;BME280;58373;51.824;5.564;2023-03-15T01:42:50;101144.47;;;1.35;94.54
57990;BME280;58373;51.824;5.564;2023-03-15T01:47:59;101159.28;;;1.27;94.45
57990;BME280;58373;51.824;5.564;2023-03-15T01:50:24;101161.84;;;1.27;94.42
57990;BME280;58373;51.824;5.564;2023-03-15T01:52:50;101156.16;;;1.19;94.47
57990;BME280;58373;51.824;5.564;2023-03-15T01:55:15;101165.56;;;1.18;94.10
57990;BME280;58373;51.824;5.564;2023-03-15T01:57:50;101157.97;;;1.17;94.34
57990;BME280;58373;51.824;5.564;2023-03-15T02:00:20;101168.19;;;1.17;94.30
57990;BME280;58373;51.824;5.564;2023-03-15T02:02:46;101170.06;;;1.12;94.18
57990;BME280;58373;51.824;5.564;2023-03-15T02:05:15;101161.50;;;1.13;94.14
57990;BME280;58373;51.824;5.564;2023-03-15T02:07:42;101168.28;;;1.14;94.30
57990;BME280;58373;51.824;5.564;2023-03-15T02:10:14;101158.19;;;1.11;94.52
57990;BME280;58373;51.824;5.564;2023-03-15T02:12:41;101156.53;;;1.10;95.00
57990;BME280;58373;51.824;5.564;2023-03-15T02:15:07;101156.63;;;1.06;95.23
57990;BME280;58373;51.824;5.564;2023-03-15T02:17:35;101160.19;;;1.02;94.57
57990;BME280;58373;51.824;5.564;2023-03-15T02:27:34;101170.38;;;1.02;94.89
57990;BME280;58373;51.824;5.564;2023-03-15T02:30:01;101167.06;;;1.00;94.69
57990;BME280;58373;51.824;5.564;2023-03-15T02:32:27;101175.56;;;1.01;94.53
57990;BME280;58373;51.824;5.564;2023-03-15T02:34:52;101178.88;;;1.03;95.29
57990;BME280;58373;51.824;5.564;2023-03-15T02:37:17;101178.06;;;1.02;94.93
57990;BME280;58373;51.824;5.564;2023-03-15T02:39:42;101177.19;;;1.03;94.87
57990;BME280;58373;51.824;5.564;2023-03-15T02:42:08;101189.75;;;1.10;96.01
57990;BME280;58373;51.824;5.564;2023-03-15T02:44:34;101196.75;;;1.03;95.21
57990;BME280;58373;51.824;5.564;2023-03-15T02:47:03;101199.28;;;1.04;95.05
57990;BME280;58373;51.824;5.564;2023-03-15T02:49:30;101197.63;;;1.03;95.23
57990;BME280;58373;51.824;5.564;2023-03-15T02:51:56;101197.63;;;1.03;95.39
57990;BME280;58373;51.824;5.564;2023-03-15T02:54:21;101197.50;;;1.06;95.46
57990;BME280;58373;51.824;5.564;2023-03-15T02:56:47;101209.50;;;1.04;95.59
57990;BME280;58373;51.824;5.564;2023-03-15T02:59:12;101212.94;;;1.03;95.30
57990;BME280;58373;51.824;5.564;2023-03-15T03:01:37;101213.78;;;1.04;95.07
57990;BME280;58373;51.824;5.564;2023-03-15T03:04:03;101228.38;;;1.00;95.06
57990;BME280;58373;51.824;5.564;2023-03-15T03:06:28;101219.94;;;0.98;95.65
57990;BME280;58373;51.824;5.564;2023-03-15T03:08:53;101226.72;;;0.99;95.58
57990;BME280;58373;51.824;5.564;2023-03-15T03:11:18;101228.47;;;0.97;95.40
57990;BME280;58373;51.824;5.564;2023-03-15T03:13:44;101233.47;;;1.00;95.45
57990;BME280;58373;51.824;5.564;2023-03-15T03:16:09;101235.13;;;1.01;95.63
57990;BME280;58373;51.824;5.564;2023-03-15T03:18:35;101232.53;;;1.03;95.68
57990;BME280;58373;51.824;5.564;2023-03-15T03:21:01;101243.69;;;1.00;95.75
57990;BME280;58373;51.824;5.564;2023-03-15T03:23:28;101242.03;;;0.99;95.34
57990;BME280;58373;51.824;5.564;2023-03-15T03:25:54;101241.06;;;1.02;95.36
57990;BME280;58373;51.824;5.564;2023-03-15T03:28:20;101245.34;;;1.01;95.13
57990;BME280;58373;51.824;5.564;2023-03-15T03:30:46;101255.56;;;1.01;94.98
57990;BME280;58373;51.824;5.564;2023-03-15T03:33:11;101259.00;;;1.00;94.77
57990;BME280;58373;51.824;5.564;2023-03-15T03:35:36;101261.56;;;1.00;94.90
57990;BME280;58373;51.824;5.564;2023-03-15T03:38:01;101253.06;;;1.00;94.80
57990;BME280;58373;51.824;5.564;2023-03-15T03:40:26;101266.78;;;0.97;95.09
57990;BME280;58373;51.824;5.564;2023-03-15T03:42:51;101271.88;;;0.97;95.34
57990;BME280;58373;51.824;5.564;2023-03-15T03:45:17;101276.22;;;0.95;95.25
57990;BME280;58373;51.824;5.564;2023-03-15T03:47:42;101286.56;;;0.92;94.89
57990;BME280;58373;51.824;5.564;2023-03-15T03:50:08;101290.78;;;0.92;95.81
57990;BME280;58373;51.824;5.564;2023-03-15T03:52:33;101301.97;;;0.89;95.42
57990;BME280;58373;51.824;5.564;2023-03-15T03:54:59;101295.97;;;0.90;95.07
57990;BME280;58373;51.824;5.564;2023-03-15T03:57:24;101296.75;;;0.92;95.54
57990;BME280;58373;51.824;5.564;2023-03-15T03:59:49;101281.53;;;0.89;95.51
57990;BME280;58373;51.824;5.564;2023-03-15T04:02:14;101290.84;;;0.90;95.68
57990;BME280;58373;51.824;5.564;2023-03-15T04:04:39;101293.41;;;0.90;95.50
57990;BME280;58373;51.824;5.564;2023-03-15T04:07:06;101302.72;;;0.91;95.75
57990;BME280;58373;51.824;5.564;2023-03-15T04:09:31;101308.66;;;0.93;95.40
57990;BME280;58373;51.824;5.564;2023-03-15T04:12:01;101311.97;;;0.95;95.76
57990;BME280;58373;51.824;5.564;2023-03-15T04:14:26;101315.41;;;0.94;95.63
57990;BME280;58373;51.824;5.564;2023-03-15T04:16:51;101324.75;;;0.95;95.73
57990;BME280;58373;51.824;5.564;2023-03-15T04:19:18;101325.63;;;0.94;95.64
57990;BME280;58373;51.824;5.564;2023-03-15T04:21:43;101314.63;;;0.92;95.46
57990;BME280;58373;51.824;5.564;2023-03-15T04:24:11;101325.63;;;0.94;95.63
57990;BME280;58373;51.824;5.564;2023-03-15T04:26:36;101327.41;;;0.92;95.20
57990;BME280;58373;51.824;5.564;2023-03-15T04:29:01;101329.09;;;0.92;95.42
57990;BME280;58373;51.824;5.564;2023-03-15T04:31:28;101342.81;;;0.89;95.20
57990;BME280;58373;51.824;5.564;2023-03-15T04:33:53;101342.00;;;0.89;95.46
57990;BME280;58373;51.824;5.564;2023-03-15T04:36:19;101343.72;;;0.88;95.51
57990;BME280;58373;51.824;5.564;2023-03-15T04:38:45;101355.72;;;0.86;95.33
57990;BME280;58373;51.824;5.564;2023-03-15T04:41:11;101356.56;;;0.85;95.66
57990;BME280;58373;51.824;5.564;2023-03-15T04:43:36;101355.00;;;0.81;95.43
57990;BME280;58373;51.824;5.564;2023-03-15T04:46:01;101361.78;;;0.82;95.39
57990;BME280;58373;51.824;5.564;2023-03-15T04:48:26;101365.22;;;0.81;95.31
57990;BME280;58373;51.824;5.564;2023-03-15T04:50:52;101366.09;;;0.80;95.58
57990;BME280;58373;51.824;5.564;2023-03-15T04:53:17;101359.44;;;0.76;95.28
57990;BME280;58373;51.824;5.564;2023-03-15T04:55:42;101367.97;;;0.75;95.40
57990;BME280;58373;51.824;5.564;2023-03-15T04:58:07;101372.19;;;0.76;95.32
57990;BME280;58373;51.824;5.564;2023-03-15T05:00:32;101371.31;;;0.77;95.20
57990;BME280;58373;51.824;5.564;2023-03-15T05:02:58;101371.38;;;0.75;95.31
57990;BME280;58373;51.824;5.564;2023-03-15T05:05:23;101375.66;;;0.75;95.42
57990;BME280;58373;51.824;5.564;2023-03-15T05:07:48;101376.63;;;0.71;95.14
57990;BME280;58373;51.824;5.564;2023-03-15T05:10:14;101392.63;;;0.76;95.26
57990;BME280;58373;51.824;5.564;2023-03-15T05:12:40;101384.06;;;0.77;95.21
57990;BME280;58373;51.824;5.564;2023-03-15T05:15:05;101390.97;;;0.75;95.38
57990;BME280;58373;51.824;5.564;2023-03-15T05:17:30;101391.81;;;0.74;95.10
57990;BME280;58373;51.824;5.564;2023-03-15T05:19:57;101394.53;;;0.69;95.37
57990;BME280;58373;51.824;5.564;2023-03-15T05:22:25;101403.13;;;0.67;95.48
57990;BME280;58373;51.824;5.564;2023-03-15T05:24:51;101398.13;;;0.64;95.43
57990;BME280;58373;51.824;5.564;2023-03-15T05:27:17;101410.88;;;0.64;95.08
57990;BME280;58373;51.824;5.564;2023-03-15T05:29:43;101404.09;;;0.63;95.37
57990;BME280;58373;51.824;5.564;2023-03-15T05:32:09;101411.75;;;0.63;95.53
57990;BME280;58373;51.824;5.564;2023-03-15T05:34:34;101416.84;;;0.63;95.44
57990;BME280;58373;51.824;5.564;2023-03-15T05:37:00;101413.44;;;0.64;95.28
57990;BME280;58373;51.824;5.564;2023-03-15T05:39:25;101419.31;;;0.66;95.39
57990;BME280;58373;51.824;5.564;2023-03-15T05:41:50;101416.75;;;0.66;95.49
57990;BME280;58373;51.824;5.564;2023-03-15T05:44:15;101416.75;;;0.66;95.52
57990;BME280;58373;51.824;5.564;2023-03-15T05:46:41;101425.31;;;0.65;95.06
57990;BME280;58373;51.824;5.564;2023-03-15T05:49:06;101429.53;;;0.66;95.46
57990;BME280;58373;51.824;5.564;2023-03-15T05:51:31;101438.84;;;0.67;95.29
57990;BME280;58373;51.824;5.564;2023-03-15T05:53:56;101439.69;;;0.67;95.41
57990;BME280;58373;51.824;5.564;2023-03-15T05:56:22;101444.78;;;0.67;95.45
57990;BME280;58373;51.824;5.564;2023-03-15T05:58:47;101454.94;;;0.69;95.61
57990;BME280;58373;51.824;5.564;2023-03-15T06:01:12;101459.28;;;0.67;95.50
57990;BME280;58373;51.824;5.564;2023-03-15T06:03:37;101457.69;;;0.63;95.33
57990;BME280;58373;51.824;5.564;2023-03-15T06:06:03;101473.94;;;0.60;95.28
57990;BME280;58373;51.824;5.564;2023-03-15T06:08:29;101469.78;;;0.58;95.30
57990;BME280;58373;51.824;5.564;2023-03-15T06:10:54;101474.88;;;0.58;95.24
57990;BME280;58373;51.824;5.564;2023-03-15T06:13:19;101481.66;;;0.59;95.39
57990;BME280;58373;51.824;5.564;2023-03-15T06:15:47;101485.09;;;0.58;95.61
57990;BME280;58373;51.824;5.564;2023-03-15T06:18:13;101478.22;;;0.60;95.86
57990;BME280;58373;51.824;5.564;2023-03-15T06:20:39;101473.19;;;0.57;95.46
57990;BME280;58373;51.824;5.564;2023-03-15T06:23:04;101486.78;;;0.57;95.84
57990;BME280;58373;51.824;5.564;2023-03-15T06:25:29;101484.22;;;0.59;95.59
57990;BME280;58373;51.824;5.564;2023-03-15T06:27:55;101486.75;;;0.59;95.88
57990;BME280;58373;51.824;5.564;2023-03-15T06:30:20;101483.41;;;0.57;96.13
57990;BME280;58373;51.824;5.564;2023-03-15T06:32:45;101495.31;;;0.58;96.10
57990;BME280;58373;51.824;5.564;2023-03-15T06:35:10;101508.84;;;0.60;95.90
57990;BME280;58373;51.824;5.564;2023-03-15T06:37:36;101509.69;;;0.60;96.01
57990;BME280;58373;51.824;5.564;2023-03-15T06:40:02;101518.22;;;0.59;95.88
57990;BME280;58373;51.824;5.564;2023-03-15T06:42:30;101524.16;;;0.60;95.93
57990;BME280;58373;51.824;5.564;2023-03-15T06:44:55;101533.44;;;0.62;95.99
57990;BME280;58373;51.824;5.564;2023-03-15T06:47:20;101535.09;;;0.65;96.21
57990;BME280;58373;51.824;5.564;2023-03-15T06:49:45;101538.34;;;0.68;96.80
57990;BME280;58373;51.824;5.564;2023-03-15T06:52:14;101552.66;;;0.74;96.55
57990;BME280;58373;51.824;5.564;2023-03-15T06:54:39;101544.03;;;0.78;96.06
57990;BME280;58373;51.824;5.564;2023-03-15T06:57:04;101560.00;;;0.86;96.79
57990;BME280;58373;51.824;5.564;2023-03-15T06:59:30;101570.03;;;0.92;96.70
57990;BME280;58373;51.824;5.564;2023-03-15T07:01:55;101558.81;;;0.96;96.53
57990;BME280;58373;51.824;5.564;2023-03-15T07:04:20;101570.63;;;1.00;96.89
57990;BME280;58373;51.824;5.564;2023-03-15T07:06:45;101573.94;;;1.02;97.07
57990;BME280;58373;51.824;5.564;2023-03-15T07:09:11;101574.72;;;1.06;96.85
57990;BME280;58373;51.824;5.564;2023-03-15T07:11:36;101578.88;;;1.09;96.68
57990;BME280;58373;51.824;5.564;2023-03-15T07:14:01;101589.03;;;1.12;96.54
57990;BME280;58373;51.824;5.564;2023-03-15T07:16:27;101594.03;;;1.15;96.94
57990;BME280;58373;51.824;5.564;2023-03-15T07:18:52;101587.06;;;1.20;97.03
57990;BME280;58373;51.824;5.564;2023-03-15T07:21:20;101597.28;;;1.20;96.84
57990;BME280;58373;51.824;5.564;2023-03-15T07:23:45;101602.38;;;1.20;96.56
57990;BME280;58373;51.824;5.564;2023-03-15T07:26:10;101599.81;;;1.21;97.20
57990;BME280;58373;51.824;5.564;2023-03-15T07:28:35;101602.19;;;1.26;96.94
57990;BME280;58373;51.824;5.564;2023-03-15T07:31:01;101610.69;;;1.28;97.19
57990;BME280;58373;51.824;5.564;2023-03-15T07:33:28;101612.25;;;1.32;96.86
57990;BME280;58373;51.824;5.564;2023-03-15T07:35:54;101610.28;;;1.40;97.22
57990;BME280;58373;51.824;5.564;2023-03-15T07:38:20;101620.53;;;1.40;97.30
57990;BME280;58373;51.824;5.564;2023-03-15T07:40:45;101618.66;;;1.45;97.29
57990;BME280;58373;51.824;5.564;2023-03-15T07:43:11;101622.09;;;1.44;96.76
57990;BME280;58373;51.824;5.564;2023-03-15T07:45:36;101628.59;;;1.54;96.85
57990;BME280;58373;51.824;5.564;2023-03-15T07:48:01;101630.28;;;1.55;97.48
57990;BME280;58373;51.824;5.564;2023-03-15T07:50:27;101635.09;;;1.65;97.07
57990;BME280;58373;51.824;5.564;2023-03-15T07:52:52;101640.00;;;1.71;97.15
57990;BME280;58373;51.824;5.564;2023-03-15T07:55:17;101640.16;;;1.66;97.06
57990;BME280;58373;51.824;5.564;2023-03-15T07:57:43;101634.81;;;1.74;97.36
57990;BME280;58373;51.824;5.564;2023-03-15T08:00:08;101642.38;;;1.77;96.63
57990;BME280;58373;51.824;5.564;2023-03-15T08:02:36;101646.38;;;1.85;96.83
57990;BME280;58373;51.824;5.564;2023-03-15T08:05:01;101651.16;;;1.96;97.21
57990;BME280;58373;51.824;5.564;2023-03-15T08:07:28;101648.66;;;1.93;96.56
57990;BME280;58373;51.824;5.564;2023-03-15T08:09:53;101641.19;;;1.87;96.98
57990;BME280;58373;51.824;5.564;2023-03-15T08:12:19;101664.63;;;2.01;96.72
57990;BME280;58373;51.824;5.564;2023-03-15T08:14:44;101664.50;;;2.04;96.72
57990;BME280;58373;51.824;5.564;2023-03-15T08:17:09;101673.56;;;2.15;96.79
57990;BME280;58373;51.824;5.564;2023-03-15T08:19:37;101672.59;;;2.19;96.29
57990;BME280;58373;51.824;5.564;2023-03-15T08:22:02;101679.25;;;2.23;96.71
57990;BME280;58373;51.824;5.564;2023-03-15T08:24:28;101675.72;;;2.27;96.26
57990;BME280;58373;51.824;5.564;2023-03-15T08:26:53;101679.72;;;2.34;95.86
57990;BME280;58373;51.824;5.564;2023-03-15T08:29:19;101680.53;;;2.36;94.72
57990;BME280;58373;51.824;5.564;2023-03-15T08:31:44;101688.78;;;2.44;94.99
57990;BME280;58373;51.824;5.564;2023-03-15T08:34:09;101693.69;;;2.50;94.99
57990;BME280;58373;51.824;5.564;2023-03-15T08:36:36;101698.50;;;2.59;94.89
57990;BME280;58373;51.824;5.564;2023-03-15T08:39:01;101701.16;;;2.56;94.26
57990;BME280;58373;51.824;5.564;2023-03-15T08:41:29;101701.53;;;2.71;94.13
57990;BME280;58373;51.824;5.564;2023-03-15T08:43:54;101706.88;;;2.64;93.57
57990;BME280;58373;51.824;5.564;2023-03-15T08:46:19;101704.94;;;2.71;94.44
57990;BME280;58373;51.824;5.564;2023-03-15T08:48:45;101711.22;;;2.86;94.26
57990;BME280;58373;51.824;5.564;2023-03-15T08:51:11;101710.63;;;3.03;94.19
57990;BME280;58373;51.824;5.564;2023-03-15T08:53:37;101713.81;;;3.09;93.93
57990;BME280;58373;51.824;5.564;2023-03-15T08:56:02;101717.16;;;3.11;93.15
57990;BME280;58373;51.824;5.564;2023-03-15T08:58:28;101722.16;;;3.14;92.23
57990;BME280;58373;51.824;5.564;2023-03-15T09:00:54;101731.44;;;3.18;92.01
57990;BME280;58373;51.824;5.564;2023-03-15T09:03:19;101726.81;;;3.28;92.88
57990;BME280;58373;51.824;5.564;2023-03-15T09:05:46;101735.03;;;3.36;93.42
57990;BME280;58373;51.824;5.564;2023-03-15T09:08:12;101733.97;;;3.42;92.75
57990;BME280;58373;51.824;5.564;2023-03-15T09:10:38;101735.25;;;3.54;93.04
57990;BME280;58373;51.824;5.564;2023-03-15T09:13:03;101746.25;;;3.57;91.62
57990;BME280;58373;51.824;5.564;2023-03-15T09:15:28;101747.91;;;3.58;91.63
57990;BME280;58373;51.824;5.564;2023-03-15T09:17:54;101740.16;;;3.60;90.56
57990;BME280;58373;51.824;5.564;2023-03-15T09:20:19;101747.69;;;3.64;87.84
57990;BME280;58373;51.824;5.564;2023-03-15T09:23:04;101740.75;;;3.66;88.96
57990;BME280;58373;51.824;5.564;2023-03-15T09:25:29;101741.38;;;3.73;88.76
57990;BME280;58373;51.824;5.564;2023-03-15T09:27:55;101731.88;;;3.75;88.54
57990;BME280;58373;51.824;5.564;2023-03-15T09:30:20;101735.94;;;3.81;88.22
57990;BME280;58373;51.824;5.564;2023-03-15T09:32:45;101735.63;;;3.88;87.62
57990;BME280;58373;51.824;5.564;2023-03-15T09:35:12;101737.13;;;3.94;86.71
57990;BME280;58373;51.824;5.564;2023-03-15T09:37:38;101737.91;;;3.96;87.07
57990;BME280;58373;51.824;5.564;2023-03-15T09:40:04;101742.66;;;4.05;86.90
57990;BME280;58373;51.824;5.564;2023-03-15T09:42:38;101736.38;;;4.12;87.42
57990;BME280;58373;51.824;5.564;2023-03-15T09:45:17;101741.94;;;4.23;86.67
57990;BME280;58373;51.824;5.564;2023-03-15T09:48:07;101741.31;;;4.39;86.53
57990;BME280;58373;51.824;5.564;2023-03-15T09:50:39;101752.75;;;4.52;86.46
57990;BME280;58373;51.824;5.564;2023-03-15T09:53:15;101754.88;;;4.63;86.34
57990;BME280;58373;51.824;5.564;2023-03-15T09:55:43;101745.16;;;4.69;85.81
57990;BME280;58373;51.824;5.564;2023-03-15T09:58:11;101742.97;;;4.80;85.75
57990;BME280;58373;51.824;5.564;2023-03-15T10:00:43;101751.22;;;4.89;85.89
57990;BME280;58373;51.824;5.564;2023-03-15T10:03:19;101752.59;;;4.96;85.43
57990;BME280;58373;51.824;5.564;2023-03-15T10:05:47;101750.69;;;5.01;83.80
57990;BME280;58373;51.824;5.564;2023-03-15T10:08:15;101751.88;;;5.13;80.66
57990;BME280;58373;51.824;5.564;2023-03-15T10:16:06;101747.47;;;4.96;79.00
57990;BME280;58373;51.824;5.564;2023-03-15T10:21:03;101749.53;;;4.88;79.92
57990;BME280;58373;51.824;5.564;2023-03-15T10:23:32;101752.03;;;4.89;79.95
57990;BME280;58373;51.824;5.564;2023-03-15T10:26:00;101751.22;;;4.89;80.33
57990;BME280;58373;51.824;5.564;2023-03-15T10:28:28;101750.69;;;5.01;78.89
57990;BME280;58373;51.824;5.564;2023-03-15T10:30:55;101748.88;;;5.03;80.34
57990;BME280;58373;51.824;5.564;2023-03-15T10:33:24;101755.75;;;5.21;80.44
57990;BME280;58373;51.824;5.564;2023-03-15T10:35:51;101745.56;;;5.39;80.46
57990;BME280;58373;51.824;5.564;2023-03-15T10:38:17;101758.25;;;5.62;80.08
57990;BME280;58373;51.824;5.564;2023-03-15T10:40:44;101755.47;;;5.84;79.90
57990;BME280;58373;51.824;5.564;2023-03-15T10:45:38;101771.28;;;5.95;77.32
57990;BME280;58373;51.824;5.564;2023-03-15T10:48:03;101773.06;;;6.12;77.44
57990;BME280;58373;51.824;5.564;2023-03-15T10:50:29;101770.50;;;6.29;77.25
57990;BME280;58373;51.824;5.564;2023-03-15T10:52:56;101776.66;;;6.27;75.70
57990;BME280;58373;51.824;5.564;2023-03-15T10:55:31;101774.63;;;6.33;71.60
57990;BME280;58373;51.824;5.564;2023-03-15T10:57:58;101777.50;;;6.27;70.77
57990;BME280;58373;51.824;5.564;2023-03-15T11:00:30;101785.31;;;6.26;70.44
57990;BME280;58373;51.824;5.564;2023-03-15T11:03:06;101792.50;;;6.36;68.36
57990;BME280;58373;51.824;5.564;2023-03-15T11:05:40;101793.16;;;6.23;68.87
57990;BME280;58373;51.824;5.564;2023-03-15T11:08:09;101798.25;;;6.24;70.83
57990;BME280;58373;51.824;5.564;2023-03-15T11:10:35;101794.19;;;6.37;70.34
57990;BME280;58373;51.824;5.564;2023-03-15T11:13:20;101791.00;;;6.50;70.86
57990;BME280;58373;51.824;5.564;2023-03-15T11:16:14;101791.09;;;6.65;69.29
57990;BME280;58373;51.824;5.564;2023-03-15T11:21:17;101803.28;;;6.79;68.71
57990;BME280;58373;51.824;5.564;2023-03-15T11:23:45;101811.31;;;6.90;68.90
57990;BME280;58373;51.824;5.564;2023-03-15T11:28:47;101815.94;;;7.01;66.45
57990;BME280;58373;51.824;5.564;2023-03-15T11:31:13;101806.75;;;6.96;65.98
57990;BME280;58373;51.824;5.564;2023-03-15T11:33:42;101815.09;;;7.01;67.33
57990;BME280;58373;51.824;5.564;2023-03-15T11:36:13;101810.50;;;7.23;67.22
57990;BME280;58373;51.824;5.564;2023-03-15T11:38:40;101809.09;;;7.33;65.20
57990;BME280;58373;51.824;5.564;2023-03-15T11:46:52;101805.91;;;7.45;63.66
57990;BME280;58373;51.824;5.564;2023-03-15T11:51:40;101796.25;;;7.65;63.23
57990;BME280;58373;51.824;5.564;2023-03-15T11:59:09;101803.41;;;7.60;61.84
57990;BME280;58373;51.824;5.564;2023-03-15T12:01:40;101802.13;;;7.51;61.70
57990;BME280;58373;51.824;5.564;2023-03-15T12:06:50;101785.56;;;7.39;61.94
57990;BME280;58373;51.824;5.564;2023-03-15T12:11:58;101791.91;;;7.50;59.39
57990;BME280;58373;51.824;5.564;2023-03-15T12:14:28;101790.41;;;7.61;59.40
57990;BME280;58373;51.824;5.564;2023-03-15T12:19:38;101790.34;;;7.79;60.35
57990;BME280;58373;51.824;5.564;2023-03-15T12:22:04;101786.59;;;7.84;59.98
57990;BME280;58373;51.824;5.564;2023-03-15T12:24:29;101793.94;;;7.92;58.12
57990;BME280;58373;51.824;5.564;2023-03-15T12:29:27;101793.41;;;7.85;58.75
57990;BME280;58373;51.824;5.564;2023-03-15T12:31:57;101797.69;;;7.86;58.33
57990;BME280;58373;51.824;5.564;2023-03-15T12:34:39;101794.75;;;7.92;58.28
57990;BME280;58373;51.824;5.564;2023-03-15T12:37:26;101792.75;;;7.97;59.42
57990;BME280;58373;51.824;5.564;2023-03-15T12:40:08;101792.22;;;8.07;59.10
57990;BME280;58373;51.824;5.564;2023-03-15T12:52:58;101784.47;;;8.07;58.13
57990;BME280;58373;51.824;5.564;2023-03-15T12:55:26;101790.72;;;8.03;55.69
57990;BME280;58373;51.824;5.564;2023-03-15T12:57:52;101795.75;;;8.06;56.55
57990;BME280;58373;51.824;5.564;2023-03-15T13:00:22;101795.06;;;8.02;56.78
57990;BME280;58373;51.824;5.564;2023-03-15T13:02:48;101790.75;;;7.87;56.42
57990;BME280;58373;51.824;5.564;2023-03-15T13:05:18;101791.94;;;7.81;56.23
57990;BME280;58373;51.824;5.564;2023-03-15T13:07:47;101786.44;;;7.87;57.15
57990;BME280;58373;51.824;5.564;2023-03-15T13:12:44;101793.84;;;7.93;55.81
57990;BME280;58373;51.824;5.564;2023-03-15T13:15:11;101795.75;;;7.90;53.98
57990;BME280;58373;51.824;5.564;2023-03-15T13:17:42;101795.44;;;7.80;54.55
57990;BME280;58373;51.824;5.564;2023-03-15T13:25:26;101786.25;;;7.90;55.24
57990;BME280;58373;51.824;5.564;2023-03-15T13:27:55;101785.91;;;7.96;54.79
57990;BME280;58373;51.824;5.564;2023-03-15T13:30:25;101782.81;;;8.06;54.88
57990;BME280;58373;51.824;5.564;2023-03-15T13:33:03;101778.91;;;8.14;55.02
57990;BME280;58373;51.824;5.564;2023-03-15T13:35:29;101775.88;;;8.22;54.43
57990;BME280;58373;51.824;5.564;2023-03-15T13:38:11;101766.19;;;8.41;51.25
57990;BME280;58373;51.824;5.564;2023-03-15T13:40:46;101776.38;;;8.13;53.00
57990;BME280;58373;51.824;5.564;2023-03-15T13:43:11;101779.75;;;8.15;53.25
57990;BME280;58373;51.824;5.564;2023-03-15T13:45:39;101780.63;;;8.14;53.68
57990;BME280;58373;51.824;5.564;2023-03-15T13:48:05;101792.66;;;8.15;53.24
57990;BME280;58373;51.824;5.564;2023-03-15T13:50:30;101795.25;;;8.15;53.58
57990;BME280;58373;51.824;5.564;2023-03-15T13:52:55;101794.41;;;8.14;53.69
57990;BME280;58373;51.824;5.564;2023-03-15T13:55:21;101805.72;;;8.12;52.25
57990;BME280;58373;51.824;5.564;2023-03-15T13:57:49;101797.25;;;8.10;53.31
57990;BME280;58373;51.824;5.564;2023-03-15T14:00:17;101794.31;;;8.16;53.87
57990;BME280;58373;51.824;5.564;2023-03-15T14:02:45;101793.41;;;8.17;53.25
57990;BME280;58373;51.824;5.564;2023-03-15T14:05:18;101789.97;;;8.16;53.22